sensor_id;sensor_type;location;lat;lon;timestamp;temperature;humidity
3548;DHT22;1788;49.400;11.092;2023-09-30T00:00:40;19.50;59.40
3548;DHT22;1788;49.400;11.092;2023-09-30T00:03:07;19.50;59.40
3548;DHT22;1788;49.400;11.092;2023-09-30T00:05:34;19.60;59.50
3548;DHT22;1788;49.400;11.092;2023-09-30T00:08:00;19.60;59.40
3548;DHT22;1788;49.400;11.092;2023-09-30T00:10:27;19.70;59.40
3548;DHT22;1788;49.400;11.092;2023-09-30T00:12:53;19.70;59.40
3548;DHT22;1788;49.400;11.092;2023-09-30T00:15:21;19.70;59.10
3548;DHT22;1788;49.400;11.092;2023-09-30T00:17:48;19.70;59.30
3548;DHT22;1788;49.400;11.092;2023-09-30T00:20:14;19.70;59.30
3548;DHT22;1788;49.400;11.092;2023-09-30T00:22:42;19.70;59.40
3548;DHT22;1788;49.400;11.092;2023-09-30T00:25:08;19.70;59.50
3548;DHT22;1788;49.400;11.092;2023-09-30T00:27:35;19.70;59.50
3548;DHT22;1788;49.400;11.092;2023-09-30T00:30:02;19.70;59.50
3548;DHT22;1788;49.400;11.092;2023-09-30T00:32:29;19.80;59.60
3548;DHT22;1788;49.400;11.092;2023-09-30T00:34:55;19.80;59.60
3548;DHT22;1788;49.400;11.092;2023-09-30T00:37:23;19.80;59.50
3548;DHT22;1788;49.400;11.092;2023-09-30T00:39:49;19.80;59.50
3548;DHT22;1788;49.400;11.092;2023-09-30T00:42:16;19.80;59.40
3548;DHT22;1788;49.400;11.092;2023-09-30T00:44:43;19.80;59.40
3548;DHT22;1788;49.400;11.092;2023-09-30T00:47:09;19.80;59.50
3548;DHT22;1788;49.400;11.092;2023-09-30T00:49:36;19.80;59.60
3548;DHT22;1788;49.400;11.092;2023-09-30T00:52:03;19.70;59.50
3548;DHT22;1788;49.400;11.092;2023-09-30T00:54:31;19.80;59.60
3548;DHT22;1788;49.400;11.092;2023-09-30T00:56:57;19.80;59.60
3548;DHT22;1788;49.400;11.092;2023-09-30T00:59:24;19.80;60.20
3548;DHT22;1788;49.400;11.092;2023-09-30T01:01:51;19.80;59.60
3548;DHT22;1788;49.400;11.092;2023-09-30T01:04:18;19.70;59.50
3548;DHT22;1788;49.400;11.092;2023-09-30T01:06:45;19.70;60.00
3548;DHT22;1788;49.400;11.092;2023-09-30T01:09:12;19.70;59.60
3548;DHT22;1788;49.400;11.092;2023-09-30T01:11:39;19.70;59.60
3548;DHT22;1788;49.400;11.092;2023-09-30T01:14:05;19.70;59.70
3548;DHT22;1788;49.400;11.092;2023-09-30T01:16:32;19.70;59.70
3548;DHT22;1788;49.400;11.092;2023-09-30T01:18:58;19.70;59.80
3548;DHT22;1788;49.400;11.092;2023-09-30T01:21:25;19.70;59.90
3548;DHT22;1788;49.400;11.092;2023-09-30T01:23:51;19.70;59.90
3548;DHT22;1788;49.400;11.092;2023-09-30T01:26:18;19.70;60.00
3548;DHT22;1788;49.400;11.092;2023-09-30T01:28:45;19.70;60.10
3548;DHT22;1788;49.400;11.092;2023-09-30T01:31:11;19.70;60.10
3548;DHT22;1788;49.400;11.092;2023-09-30T01:33:38;19.80;60.30
3548;DHT22;1788;49.400;11.092;2023-09-30T01:36:05;19.80;60.40
3548;DHT22;1788;49.400;11.092;2023-09-30T01:38:32;19.80;60.40
3548;DHT22;1788;49.400;11.092;2023-09-30T01:40:59;19.80;60.40
3548;DHT22;1788;49.400;11.092;2023-09-30T01:43:26;19.80;60.40
3548;DHT22;1788;49.400;11.092;2023-09-30T01:45:53;19.90;60.50
3548;DHT22;1788;49.400;11.092;2023-09-30T01:48:19;19.90;60.60
3548;DHT22;1788;49.400;11.092;2023-09-30T01:50:46;19.90;60.60
3548;DHT22;1788;49.400;11.092;2023-09-30T01:53:12;19.90;60.60
3548;DHT22;1788;49.400;11.092;2023-09-30T01:55:40;19.90;60.60
3548;DHT22;1788;49.400;11.092;2023-09-30T01:58:06;19.90;60.60
3548;DHT22;1788;49.400;11.092;2023-09-30T02:00:34;19.90;60.70
3548;DHT22;1788;49.400;11.092;2023-09-30T02:03:00;19.90;60.70
3548;DHT22;1788;49.400;11.092;2023-09-30T02:05:28;19.80;61.60
3548;DHT22;1788;49.400;11.092;2023-09-30T02:07:54;19.80;60.80
3548;DHT22;1788;49.400;11.092;2023-09-30T02:10:21;19.70;60.80
3548;DHT22;1788;49.400;11.092;2023-09-30T02:12:48;19.70;61.00
3548;DHT22;1788;49.400;11.092;2023-09-30T02:15:14;19.60;61.10
3548;DHT22;1788;49.400;11.092;2023-09-30T02:17:41;19.60;61.20
3548;DHT22;1788;49.400;11.092;2023-09-30T02:20:08;19.60;61.30
3548;DHT22;1788;49.400;11.092;2023-09-30T02:22:35;19.60;61.40
3548;DHT22;1788;49.400;11.092;2023-09-30T02:25:02;19.60;61.40
3548;DHT22;1788;49.400;11.092;2023-09-30T02:27:29;19.60;61.50
3548;DHT22;1788;49.400;11.092;2023-09-30T02:29:56;19.60;61.50
3548;DHT22;1788;49.400;11.092;2023-09-30T02:32:22;19.60;61.60
3548;DHT22;1788;49.400;11.092;2023-09-30T02:34:49;19.60;61.70
3548;DHT22;1788;49.400;11.092;2023-09-30T02:37:16;19.60;61.80
3548;DHT22;1788;49.400;11.092;2023-09-30T02:39:43;19.60;62.10
3548;DHT22;1788;49.400;11.092;2023-09-30T02:42:10;19.60;62.10
3548;DHT22;1788;49.400;11.092;2023-09-30T02:44:37;19.60;62.30
3548;DHT22;1788;49.400;11.092;2023-09-30T02:47:03;19.60;62.30
3548;DHT22;1788;49.400;11.092;2023-09-30T02:51:57;19.60;62.50
3548;DHT22;1788;49.400;11.092;2023-09-30T02:54:24;19.60;62.50
3548;DHT22;1788;49.400;11.092;2023-09-30T02:56:51;19.60;62.60
3548;DHT22;1788;49.400;11.092;2023-09-30T02:59:17;19.60;62.80
3548;DHT22;1788;49.400;11.092;2023-09-30T03:01:45;19.50;63.00
3548;DHT22;1788;49.400;11.092;2023-09-30T03:04:11;19.50;63.00
3548;DHT22;1788;49.400;11.092;2023-09-30T03:06:39;19.50;63.50
3548;DHT22;1788;49.400;11.092;2023-09-30T03:09:05;19.40;63.30
3548;DHT22;1788;49.400;11.092;2023-09-30T03:11:32;19.40;63.50
3548;DHT22;1788;49.400;11.092;2023-09-30T03:13:58;19.40;63.80
3548;DHT22;1788;49.400;11.092;2023-09-30T03:16:25;19.30;63.90
3548;DHT22;1788;49.400;11.092;2023-09-30T03:18:52;19.20;64.30
3548;DHT22;1788;49.400;11.092;2023-09-30T03:21:19;19.20;64.30
3548;DHT22;1788;49.400;11.092;2023-09-30T03:23:46;19.10;64.80
3548;DHT22;1788;49.400;11.092;2023-09-30T03:26:13;19.10;64.80
3548;DHT22;1788;49.400;11.092;2023-09-30T03:28:40;19.00;65.00
3548;DHT22;1788;49.400;11.092;2023-09-30T03:31:07;19.00;65.30
3548;DHT22;1788;49.400;11.092;2023-09-30T03:33:34;19.00;65.50
3548;DHT22;1788;49.400;11.092;2023-09-30T03:36:01;18.90;65.90
3548;DHT22;1788;49.400;11.092;2023-09-30T03:38:27;18.90;65.90
3548;DHT22;1788;49.400;11.092;2023-09-30T03:40:54;18.90;66.20
3548;DHT22;1788;49.400;11.092;2023-09-30T03:43:21;18.90;66.30
3548;DHT22;1788;49.400;11.092;2023-09-30T03:45:47;18.90;66.30
3548;DHT22;1788;49.400;11.092;2023-09-30T03:48:14;18.80;66.30
3548;DHT22;1788;49.400;11.092;2023-09-30T03:50:41;18.80;66.30
3548;DHT22;1788;49.400;11.092;2023-09-30T03:53:08;18.80;66.40
3548;DHT22;1788;49.400;11.092;2023-09-30T03:55:35;18.80;66.40
3548;DHT22;1788;49.400;11.092;2023-09-30T03:58:02;18.80;66.30
3548;DHT22;1788;49.400;11.092;2023-09-30T04:00:28;18.70;66.10
3548;DHT22;1788;49.400;11.092;2023-09-30T04:02:55;18.70;65.90
3548;DHT22;1788;49.400;11.092;2023-09-30T04:05:22;18.70;65.90
3548;DHT22;1788;49.400;11.092;2023-09-30T04:07:49;18.70;65.80
3548;DHT22;1788;49.400;11.092;2023-09-30T04:10:15;18.60;65.60
3548;DHT22;1788;49.400;11.092;2023-09-30T04:12:42;18.60;65.60
3548;DHT22;1788;49.400;11.092;2023-09-30T04:15:09;18.60;65.60
3548;DHT22;1788;49.400;11.092;2023-09-30T04:17:35;18.60;65.60
3548;DHT22;1788;49.400;11.092;2023-09-30T04:20:02;18.50;65.50
3548;DHT22;1788;49.400;11.092;2023-09-30T04:22:28;18.50;65.50
3548;DHT22;1788;49.400;11.092;2023-09-30T04:24:55;18.50;65.50
3548;DHT22;1788;49.400;11.092;2023-09-30T04:27:22;18.50;65.50
3548;DHT22;1788;49.400;11.092;2023-09-30T04:29:48;18.40;65.40
3548;DHT22;1788;49.400;11.092;2023-09-30T04:32:15;18.40;65.50
3548;DHT22;1788;49.400;11.092;2023-09-30T04:34:42;18.40;65.60
3548;DHT22;1788;49.400;11.092;2023-09-30T04:37:09;18.30;65.70
3548;DHT22;1788;49.400;11.092;2023-09-30T04:39:36;18.30;65.70
3548;DHT22;1788;49.400;11.092;2023-09-30T04:42:03;18.30;65.90
3548;DHT22;1788;49.400;11.092;2023-09-30T04:44:30;18.30;65.90
3548;DHT22;1788;49.400;11.092;2023-09-30T04:46:57;18.30;65.90
3548;DHT22;1788;49.400;11.092;2023-09-30T04:49:24;18.30;65.90
3548;DHT22;1788;49.400;11.092;2023-09-30T04:51:51;18.30;65.90
3548;DHT22;1788;49.400;11.092;2023-09-30T04:54:18;18.30;65.90
3548;DHT22;1788;49.400;11.092;2023-09-30T04:56:45;18.30;66.40
3548;DHT22;1788;49.400;11.092;2023-09-30T04:59:12;18.20;65.90
3548;DHT22;1788;49.400;11.092;2023-09-30T05:01:39;18.20;66.10
3548;DHT22;1788;49.400;11.092;2023-09-30T05:04:06;18.20;66.10
3548;DHT22;1788;49.400;11.092;2023-09-30T05:06:33;18.20;66.20
3548;DHT22;1788;49.400;11.092;2023-09-30T05:09:00;18.20;66.20
3548;DHT22;1788;49.400;11.092;2023-09-30T05:11:27;18.20;66.20
3548;DHT22;1788;49.400;11.092;2023-09-30T05:13:54;18.20;66.10
3548;DHT22;1788;49.400;11.092;2023-09-30T05:16:21;18.20;66.00
3548;DHT22;1788;49.400;11.092;2023-09-30T05:18:48;18.20;66.20
3548;DHT22;1788;49.400;11.092;2023-09-30T05:21:14;18.20;66.20
3548;DHT22;1788;49.400;11.092;2023-09-30T05:23:41;18.20;66.30
3548;DHT22;1788;49.400;11.092;2023-09-30T05:26:07;18.20;66.40
3548;DHT22;1788;49.400;11.092;2023-09-30T05:28:34;18.20;66.40
3548;DHT22;1788;49.400;11.092;2023-09-30T05:31:01;18.20;66.50
3548;DHT22;1788;49.400;11.092;2023-09-30T05:33:27;18.20;66.50
3548;DHT22;1788;49.400;11.092;2023-09-30T05:35:54;18.20;67.40
3548;DHT22;1788;49.400;11.092;2023-09-30T05:38:20;18.20;66.70
3548;DHT22;1788;49.400;11.092;2023-09-30T05:40:47;18.10;66.80
3548;DHT22;1788;49.400;11.092;2023-09-30T05:43:15;18.30;67.50
3548;DHT22;1788;49.400;11.092;2023-09-30T05:45:42;18.20;67.30
3548;DHT22;1788;49.400;11.092;2023-09-30T05:48:09;18.30;67.10
3548;DHT22;1788;49.400;11.092;2023-09-30T05:50:36;18.30;67.10
3548;DHT22;1788;49.400;11.092;2023-09-30T05:53:03;18.40;67.10
3548;DHT22;1788;49.400;11.092;2023-09-30T05:55:30;18.30;67.00
3548;DHT22;1788;49.400;11.092;2023-09-30T05:57:57;18.40;67.10
3548;DHT22;1788;49.400;11.092;2023-09-30T06:00:24;18.40;67.00
3548;DHT22;1788;49.400;11.092;2023-09-30T06:02:51;18.30;66.90
3548;DHT22;1788;49.400;11.092;2023-09-30T06:05:18;18.30;67.00
3548;DHT22;1788;49.400;11.092;2023-09-30T06:07:45;18.30;67.10
3548;DHT22;1788;49.400;11.092;2023-09-30T06:10:11;18.30;67.20
3548;DHT22;1788;49.400;11.092;2023-09-30T06:12:38;18.30;67.40
3548;DHT22;1788;49.400;11.092;2023-09-30T06:15:05;18.30;67.50
3548;DHT22;1788;49.400;11.092;2023-09-30T06:17:32;18.20;67.40
3548;DHT22;1788;49.400;11.092;2023-09-30T06:19:59;18.20;67.60
3548;DHT22;1788;49.400;11.092;2023-09-30T06:22:26;18.20;67.60
3548;DHT22;1788;49.400;11.092;2023-09-30T06:24:52;18.30;67.70
3548;DHT22;1788;49.400;11.092;2023-09-30T06:27:19;18.20;67.60
3548;DHT22;1788;49.400;11.092;2023-09-30T06:29:46;18.30;67.70
3548;DHT22;1788;49.400;11.092;2023-09-30T06:32:12;18.30;67.80
3548;DHT22;1788;49.400;11.092;2023-09-30T06:34:39;18.30;67.90
3548;DHT22;1788;49.400;11.092;2023-09-30T06:37:05;18.30;67.80
3548;DHT22;1788;49.400;11.092;2023-09-30T06:39:32;18.30;67.90
3548;DHT22;1788;49.400;11.092;2023-09-30T06:41:59;18.40;68.00
3548;DHT22;1788;49.400;11.092;2023-09-30T06:44:26;18.40;68.00
3548;DHT22;1788;49.400;11.092;2023-09-30T06:46:53;18.40;68.00
3548;DHT22;1788;49.400;11.092;2023-09-30T06:49:19;18.40;68.00
3548;DHT22;1788;49.400;11.092;2023-09-30T06:51:46;18.40;68.00
3548;DHT22;1788;49.400;11.092;2023-09-30T06:54:13;18.50;68.30
3548;DHT22;1788;49.400;11.092;2023-09-30T06:56:40;18.50;68.30
3548;DHT22;1788;49.400;11.092;2023-09-30T06:59:07;18.50;69.30
3548;DHT22;1788;49.400;11.092;2023-09-30T07:01:34;18.50;68.30
3548;DHT22;1788;49.400;11.092;2023-09-30T07:04:00;18.50;68.30
3548;DHT22;1788;49.400;11.092;2023-09-30T07:06:28;18.50;68.50
3548;DHT22;1788;49.400;11.092;2023-09-30T07:08:54;18.50;68.50
3548;DHT22;1788;49.400;11.092;2023-09-30T07:13:48;18.50;68.70
3548;DHT22;1788;49.400;11.092;2023-09-30T07:16:14;18.50;68.70
3548;DHT22;1788;49.400;11.092;2023-09-30T07:18:41;18.40;68.70
3548;DHT22;1788;49.400;11.092;2023-09-30T07:21:07;18.40;68.80
3548;DHT22;1788;49.400;11.092;2023-09-30T07:23:34;18.30;68.80
3548;DHT22;1788;49.400;11.092;2023-09-30T07:26:01;18.10;68.80
3548;DHT22;1788;49.400;11.092;2023-09-30T07:28:28;18.00;68.70
3548;DHT22;1788;49.400;11.092;2023-09-30T07:30:55;17.90;68.80
3548;DHT22;1788;49.400;11.092;2023-09-30T07:33:21;17.80;69.10
3548;DHT22;1788;49.400;11.092;2023-09-30T07:35:48;17.70;69.30
3548;DHT22;1788;49.400;11.092;2023-09-30T07:38:15;17.70;69.80
3548;DHT22;1788;49.400;11.092;2023-09-30T07:40:42;17.70;69.80
3548;DHT22;1788;49.400;11.092;2023-09-30T07:43:10;17.60;70.70
3548;DHT22;1788;49.400;11.092;2023-09-30T07:45:36;17.60;69.80
3548;DHT22;1788;49.400;11.092;2023-09-30T07:48:03;17.70;70.00
3548;DHT22;1788;49.400;11.092;2023-09-30T07:50:29;17.70;70.10
3548;DHT22;1788;49.400;11.092;2023-09-30T07:52:56;17.70;70.10
3548;DHT22;1788;49.400;11.092;2023-09-30T07:55:23;17.70;70.00
3548;DHT22;1788;49.400;11.092;2023-09-30T07:57:50;17.70;70.00
3548;DHT22;1788;49.400;11.092;2023-09-30T08:00:17;17.70;70.10
3548;DHT22;1788;49.400;11.092;2023-09-30T08:02:44;17.70;70.00
3548;DHT22;1788;49.400;11.092;2023-09-30T08:05:11;17.80;71.10
3548;DHT22;1788;49.400;11.092;2023-09-30T08:07:38;17.80;70.30
3548;DHT22;1788;49.400;11.092;2023-09-30T08:10:04;17.80;70.30
3548;DHT22;1788;49.400;11.092;2023-09-30T08:12:31;17.90;70.30
3548;DHT22;1788;49.400;11.092;2023-09-30T08:14:57;18.00;70.30
3548;DHT22;1788;49.400;11.092;2023-09-30T08:17:25;18.10;70.40
3548;DHT22;1788;49.400;11.092;2023-09-30T08:19:51;18.10;70.40
3548;DHT22;1788;49.400;11.092;2023-09-30T08:22:19;18.30;70.30
3548;DHT22;1788;49.400;11.092;2023-09-30T08:24:45;18.20;70.20
3548;DHT22;1788;49.400;11.092;2023-09-30T08:27:12;18.30;70.10
3548;DHT22;1788;49.400;11.092;2023-09-30T08:29:39;18.40;70.10
3548;DHT22;1788;49.400;11.092;2023-09-30T08:32:05;18.50;70.00
3548;DHT22;1788;49.400;11.092;2023-09-30T08:34:33;18.70;69.60
3548;DHT22;1788;49.400;11.092;2023-09-30T08:36:59;18.70;69.60
3548;DHT22;1788;49.400;11.092;2023-09-30T08:39:27;18.80;69.50
3548;DHT22;1788;49.400;11.092;2023-09-30T08:41:54;18.80;69.40
3548;DHT22;1788;49.400;11.092;2023-09-30T08:44:21;19.10;69.40
3548;DHT22;1788;49.400;11.092;2023-09-30T08:46:47;19.10;69.20
3548;DHT22;1788;49.400;11.092;2023-09-30T08:49:14;19.20;68.80
3548;DHT22;1788;49.400;11.092;2023-09-30T08:51:40;19.20;68.40
3548;DHT22;1788;49.400;11.092;2023-09-30T08:54:07;19.30;68.30
3548;DHT22;1788;49.400;11.092;2023-09-30T08:56:34;19.30;67.80
3548;DHT22;1788;49.400;11.092;2023-09-30T08:59:02;19.30;67.80
3548;DHT22;1788;49.400;11.092;2023-09-30T09:01:29;19.40;67.70
3548;DHT22;1788;49.400;11.092;2023-09-30T09:03:55;19.40;67.60
3548;DHT22;1788;49.400;11.092;2023-09-30T09:06:22;19.50;67.50
3548;DHT22;1788;49.400;11.092;2023-09-30T09:08:48;19.60;67.40
3548;DHT22;1788;49.400;11.092;2023-09-30T09:11:15;19.70;67.10
3548;DHT22;1788;49.400;11.092;2023-09-30T09:16:09;19.70;66.60
3548;DHT22;1788;49.400;11.092;2023-09-30T09:18:36;19.80;66.50
3548;DHT22;1788;49.400;11.092;2023-09-30T09:23:29;19.90;66.10
3548;DHT22;1788;49.400;11.092;2023-09-30T09:25:55;20.00;66.00
3548;DHT22;1788;49.400;11.092;2023-09-30T09:28:26;20.20;66.00
3548;DHT22;1788;49.400;11.092;2023-09-30T09:30:49;20.40;65.80
3548;DHT22;1788;49.400;11.092;2023-09-30T09:33:15;20.50;65.30
3548;DHT22;1788;49.400;11.092;2023-09-30T09:35:43;20.60;64.20
3548;DHT22;1788;49.400;11.092;2023-09-30T09:38:09;20.60;64.20
3548;DHT22;1788;49.400;11.092;2023-09-30T09:40:37;20.80;63.70
3548;DHT22;1788;49.400;11.092;2023-09-30T09:43:04;21.00;63.50
3548;DHT22;1788;49.400;11.092;2023-09-30T09:47:59;21.30;62.50
3548;DHT22;1788;49.400;11.092;2023-09-30T09:50:25;21.30;62.40
3548;DHT22;1788;49.400;11.092;2023-09-30T09:52:53;21.40;62.00
3548;DHT22;1788;49.400;11.092;2023-09-30T09:55:19;21.40;61.70
3548;DHT22;1788;49.400;11.092;2023-09-30T09:57:45;21.50;61.60
3548;DHT22;1788;49.400;11.092;2023-09-30T10:00:13;21.90;61.00
3548;DHT22;1788;49.400;11.092;2023-09-30T10:02:39;21.90;61.00
3548;DHT22;1788;49.400;11.092;2023-09-30T10:05:07;22.00;59.90
3548;DHT22;1788;49.400;11.092;2023-09-30T10:07:34;22.00;59.80
3548;DHT22;1788;49.400;11.092;2023-09-30T10:10:00;22.10;59.50
3548;DHT22;1788;49.400;11.092;2023-09-30T10:12:26;22.10;59.30
3548;DHT22;1788;49.400;11.092;2023-09-30T10:14:53;22.10;59.10
3548;DHT22;1788;49.400;11.092;2023-09-30T10:17:20;22.10;59.00
3548;DHT22;1788;49.400;11.092;2023-09-30T10:24:39;22.20;58.30
3548;DHT22;1788;49.400;11.092;2023-09-30T10:32:01;22.40;57.70
3548;DHT22;1788;49.400;11.092;2023-09-30T10:34:27;22.40;57.70
3548;DHT22;1788;49.400;11.092;2023-09-30T10:36:54;22.50;57.40
3548;DHT22;1788;49.400;11.092;2023-09-30T10:39:52;22.50;57.10
3548;DHT22;1788;49.400;11.092;2023-09-30T10:46:41;22.60;56.50
3548;DHT22;1788;49.400;11.092;2023-09-30T10:51:35;22.40;56.10
3548;DHT22;1788;49.400;11.092;2023-09-30T10:54:03;22.40;56.40
3548;DHT22;1788;49.400;11.092;2023-09-30T10:58:56;22.30;56.00
3548;DHT22;1788;49.400;11.092;2023-09-30T11:01:23;22.30;56.00
3548;DHT22;1788;49.400;11.092;2023-09-30T11:03:50;22.30;56.00
3548;DHT22;1788;49.400;11.092;2023-09-30T11:06:17;22.30;55.80
3548;DHT22;1788;49.400;11.092;2023-09-30T11:11:10;22.50;55.50
3548;DHT22;1788;49.400;11.092;2023-09-30T11:13:37;22.50;55.40
3548;DHT22;1788;49.400;11.092;2023-09-30T11:16:04;22.50;55.30
3548;DHT22;1788;49.400;11.092;2023-09-30T11:18:32;22.50;55.60
3548;DHT22;1788;49.400;11.092;2023-09-30T11:23:26;22.50;54.90
3548;DHT22;1788;49.400;11.092;2023-09-30T11:25:53;22.40;54.70
3548;DHT22;1788;49.400;11.092;2023-09-30T11:28:19;22.30;54.80
3548;DHT22;1788;49.400;11.092;2023-09-30T11:33:12;22.10;54.50
3548;DHT22;1788;49.400;11.092;2023-09-30T11:35:39;22.10;54.60
3548;DHT22;1788;49.400;11.092;2023-09-30T11:38:05;22.10;54.60
3548;DHT22;1788;49.400;11.092;2023-09-30T11:40:32;22.10;54.40
3548;DHT22;1788;49.400;11.092;2023-09-30T11:45:25;22.20;54.20
3548;DHT22;1788;49.400;11.092;2023-09-30T11:47:52;22.20;53.90
3548;DHT22;1788;49.400;11.092;2023-09-30T11:50:19;22.20;53.70
3548;DHT22;1788;49.400;11.092;2023-09-30T11:52:46;22.20;53.40
3548;DHT22;1788;49.400;11.092;2023-09-30T11:55:13;22.20;53.40
3548;DHT22;1788;49.400;11.092;2023-09-30T11:57:39;22.20;53.20
3548;DHT22;1788;49.400;11.092;2023-09-30T12:00:06;22.30;53.20
3548;DHT22;1788;49.400;11.092;2023-09-30T12:02:32;22.30;53.10
3548;DHT22;1788;49.400;11.092;2023-09-30T12:05:00;22.40;52.80
3548;DHT22;1788;49.400;11.092;2023-09-30T12:07:26;22.40;52.80
3548;DHT22;1788;49.400;11.092;2023-09-30T12:09:54;22.80;52.70
3548;DHT22;1788;49.400;11.092;2023-09-30T12:12:20;22.80;52.60
3548;DHT22;1788;49.400;11.092;2023-09-30T12:14:48;23.20;52.90
3548;DHT22;1788;49.400;11.092;2023-09-30T12:17:14;23.20;52.20
3548;DHT22;1788;49.400;11.092;2023-09-30T12:19:41;23.30;51.90
3548;DHT22;1788;49.400;11.092;2023-09-30T12:22:08;23.40;51.60
3548;DHT22;1788;49.400;11.092;2023-09-30T12:24:34;23.50;51.40
3548;DHT22;1788;49.400;11.092;2023-09-30T12:27:01;23.70;51.40
3548;DHT22;1788;49.400;11.092;2023-09-30T12:29:28;23.80;51.90
3548;DHT22;1788;49.400;11.092;2023-09-30T12:31:54;23.90;51.10
3548;DHT22;1788;49.400;11.092;2023-09-30T12:34:21;24.00;51.00
3548;DHT22;1788;49.400;11.092;2023-09-30T12:36:48;24.00;50.60
3548;DHT22;1788;49.400;11.092;2023-09-30T12:39:15;24.00;50.60
3548;DHT22;1788;49.400;11.092;2023-09-30T12:41:42;24.00;50.40
3548;DHT22;1788;49.400;11.092;2023-09-30T12:44:08;23.90;50.40
3548;DHT22;1788;49.400;11.092;2023-09-30T12:46:35;23.90;50.30
3548;DHT22;1788;49.400;11.092;2023-09-30T12:49:02;23.70;49.90
3548;DHT22;1788;49.400;11.092;2023-09-30T12:51:29;23.70;49.90
3548;DHT22;1788;49.400;11.092;2023-09-30T12:53:56;23.70;49.90
3548;DHT22;1788;49.400;11.092;2023-09-30T12:56:22;23.70;49.80
3548;DHT22;1788;49.400;11.092;2023-09-30T12:58:50;23.80;50.20
3548;DHT22;1788;49.400;11.092;2023-09-30T13:01:16;23.80;49.60
3548;DHT22;1788;49.400;11.092;2023-09-30T13:03:44;23.80;49.40
3548;DHT22;1788;49.400;11.092;2023-09-30T13:06:10;23.80;49.20
3548;DHT22;1788;49.400;11.092;2023-09-30T13:08:36;23.80;49.10
3548;DHT22;1788;49.400;11.092;2023-09-30T13:11:04;23.90;49.10
3548;DHT22;1788;49.400;11.092;2023-09-30T13:13:31;24.00;49.10
3548;DHT22;1788;49.400;11.092;2023-09-30T13:15:57;24.10;48.90
3548;DHT22;1788;49.400;11.092;2023-09-30T13:18:24;24.40;48.60
3548;DHT22;1788;49.400;11.092;2023-09-30T13:20:50;24.70;48.20
3548;DHT22;1788;49.400;11.092;2023-09-30T13:23:18;25.60;47.00
3548;DHT22;1788;49.400;11.092;2023-09-30T13:25:44;25.60;47.00
3548;DHT22;1788;49.400;11.092;2023-09-30T13:28:12;26.80;45.20
3548;DHT22;1788;49.400;11.092;2023-09-30T13:30:38;26.80;45.10
3548;DHT22;1788;49.400;11.092;2023-09-30T13:33:06;28.10;43.60
3548;DHT22;1788;49.400;11.092;2023-09-30T13:35:32;28.10;43.20
3548;DHT22;1788;49.400;11.092;2023-09-30T13:37:59;28.90;42.20
3548;DHT22;1788;49.400;11.092;2023-09-30T13:40:25;29.40;41.40
3548;DHT22;1788;49.400;11.092;2023-09-30T13:42:52;29.50;40.80
3548;DHT22;1788;49.400;11.092;2023-09-30T13:45:19;29.80;40.10
3548;DHT22;1788;49.400;11.092;2023-09-30T13:47:47;29.70;40.00
3548;DHT22;1788;49.400;11.092;2023-09-30T13:50:14;30.00;39.70
3548;DHT22;1788;49.400;11.092;2023-09-30T13:52:40;30.20;39.40
3548;DHT22;1788;49.400;11.092;2023-09-30T13:55:07;30.20;39.10
3548;DHT22;1788;49.400;11.092;2023-09-30T13:57:33;30.40;39.00
3548;DHT22;1788;49.400;11.092;2023-09-30T14:02:27;30.60;38.70
3548;DHT22;1788;49.400;11.092;2023-09-30T14:04:55;30.50;38.70
3548;DHT22;1788;49.400;11.092;2023-09-30T14:07:21;30.50;38.70
3548;DHT22;1788;49.400;11.092;2023-09-30T14:09:48;30.30;38.70
3548;DHT22;1788;49.400;11.092;2023-09-30T14:12:15;29.90;38.80
3548;DHT22;1788;49.400;11.092;2023-09-30T14:14:41;29.50;38.90
3548;DHT22;1788;49.400;11.092;2023-09-30T14:17:09;28.60;39.30
3548;DHT22;1788;49.400;11.092;2023-09-30T14:19:35;28.60;39.30
3548;DHT22;1788;49.400;11.092;2023-09-30T14:22:03;27.80;40.00
3548;DHT22;1788;49.400;11.092;2023-09-30T14:24:31;27.50;40.40
3548;DHT22;1788;49.400;11.092;2023-09-30T14:26:58;27.50;40.40
3548;DHT22;1788;49.400;11.092;2023-09-30T14:29:25;27.10;40.70
3548;DHT22;1788;49.400;11.092;2023-09-30T14:31:51;26.80;41.20
3548;DHT22;1788;49.400;11.092;2023-09-30T14:34:18;26.80;41.40
3548;DHT22;1788;49.400;11.092;2023-09-30T14:36:45;26.70;41.30
3548;DHT22;1788;49.400;11.092;2023-09-30T14:39:11;26.50;41.30
3548;DHT22;1788;49.400;11.092;2023-09-30T14:41:38;26.40;41.40
3548;DHT22;1788;49.400;11.092;2023-09-30T14:44:05;26.30;41.30
3548;DHT22;1788;49.400;11.092;2023-09-30T14:46:31;26.10;41.30
3548;DHT22;1788;49.400;11.092;2023-09-30T14:48:59;25.90;41.50
3548;DHT22;1788;49.400;11.092;2023-09-30T14:51:25;25.90;41.40
3548;DHT22;1788;49.400;11.092;2023-09-30T14:53:53;25.70;42.40
3548;DHT22;1788;49.400;11.092;2023-09-30T14:56:19;25.60;41.70
3548;DHT22;1788;49.400;11.092;2023-09-30T14:58:46;25.50;41.70
3548;DHT22;1788;49.400;11.092;2023-09-30T15:01:12;25.30;41.80
3548;DHT22;1788;49.400;11.092;2023-09-30T15:03:39;25.10;42.10
3548;DHT22;1788;49.400;11.092;2023-09-30T15:06:06;24.90;42.40
3548;DHT22;1788;49.400;11.092;2023-09-30T15:08:33;24.90;42.70
3548;DHT22;1788;49.400;11.092;2023-09-30T15:10:59;24.80;42.90
3548;DHT22;1788;49.400;11.092;2023-09-30T15:13:26;24.70;42.90
3548;DHT22;1788;49.400;11.092;2023-09-30T15:15:53;24.50;43.70
3548;DHT22;1788;49.400;11.092;2023-09-30T15:18:19;24.50;43.10
3548;DHT22;1788;49.400;11.092;2023-09-30T15:20:49;24.30;43.20
3548;DHT22;1788;49.400;11.092;2023-09-30T15:23:13;24.30;43.20
3548;DHT22;1788;49.400;11.092;2023-09-30T15:28:07;24.10;43.50
3548;DHT22;1788;49.400;11.092;2023-09-30T15:30:34;24.00;43.60
3548;DHT22;1788;49.400;11.092;2023-09-30T15:33:01;23.90;43.80
3548;DHT22;1788;49.400;11.092;2023-09-30T15:35:27;23.80;43.90
3548;DHT22;1788;49.400;11.092;2023-09-30T15:37:54;23.70;44.10
3548;DHT22;1788;49.400;11.092;2023-09-30T15:40:20;23.60;44.20
3548;DHT22;1788;49.400;11.092;2023-09-30T15:42:47;23.60;44.50
3548;DHT22;1788;49.400;11.092;2023-09-30T15:45:14;23.50;44.70
3548;DHT22;1788;49.400;11.092;2023-09-30T15:47:41;23.50;44.80
3548;DHT22;1788;49.400;11.092;2023-09-30T15:50:07;23.50;45.00
3548;DHT22;1788;49.400;11.092;2023-09-30T15:52:34;23.40;45.10
3548;DHT22;1788;49.400;11.092;2023-09-30T15:55:01;23.30;45.50
3548;DHT22;1788;49.400;11.092;2023-09-30T15:57:28;23.30;45.50
3548;DHT22;1788;49.400;11.092;2023-09-30T15:59:56;23.10;46.20
3548;DHT22;1788;49.400;11.092;2023-09-30T16:02:23;23.10;45.80
3548;DHT22;1788;49.400;11.092;2023-09-30T16:04:49;23.00;45.90
3548;DHT22;1788;49.400;11.092;2023-09-30T16:07:16;23.00;46.00
3548;DHT22;1788;49.400;11.092;2023-09-30T16:09:42;22.90;46.10
3548;DHT22;1788;49.400;11.092;2023-09-30T16:12:09;22.90;46.20
3548;DHT22;1788;49.400;11.092;2023-09-30T16:14:36;22.80;46.40
3548;DHT22;1788;49.400;11.092;2023-09-30T16:17:02;22.70;46.60
3548;DHT22;1788;49.400;11.092;2023-09-30T16:19:29;22.70;47.00
3548;DHT22;1788;49.400;11.092;2023-09-30T16:21:56;22.60;47.30
3548;DHT22;1788;49.400;11.092;2023-09-30T16:24:23;22.50;47.60
3548;DHT22;1788;49.400;11.092;2023-09-30T16:26:50;22.40;47.90